LPA407 UGTB-UWWW
Flight info
| Callsign | LPA407 |
|---|---|
| Flight time | 1h 55m |
| Altitude | 32000 |
| Route | LAPTO N82 NIRGA R807 UROBO P135 TUNIG |
| Aircraft | A333/H-SDE3GHIJ2J3J5M1RVWXY/LB2D1 |
Departure
| Time | 2026-04-24 19:17 |
|---|---|
| Airport | Tbilisi International Airport (UGTB) |
Arrival
| Time | 2026-04-24 21:13 |
|---|---|
| Airport | Kurumoch International Airport (UWWW) |
| Time | Latitude | Longitude | Altitude | Speed | Heading |
|---|---|---|---|---|---|
| 2026-04-24 18:54 | 41.66931 | 44.95986 | 1570 ft | 0 kts | 223° |
| 2026-04-24 19:00 | 41.66931 | 44.95985 | 1571 ft | 0 kts | 223° |
| 2026-04-24 19:00 | 41.66936 | 44.95991 | 1571 ft | 2 kts | 228° |
| 2026-04-24 19:01 | 41.66946 | 44.96006 | 1572 ft | 2 kts | 226° |
| 2026-04-24 19:01 | 41.66956 | 44.96021 | 1573 ft | 2 kts | 224° |
| 2026-04-24 19:01 | 41.66968 | 44.96033 | 1574 ft | 2 kts | 193° |
| 2026-04-24 19:01 | 41.66982 | 44.96033 | 1575 ft | 2 kts | 157° |
| 2026-04-24 19:02 | 41.66991 | 44.96027 | 1575 ft | 2 kts | 134° |
| 2026-04-24 19:02 | 41.67004 | 44.96007 | 1576 ft | 2 kts | 133° |
| 2026-04-24 19:02 | 41.67014 | 44.95992 | 1576 ft | 2 kts | 135° |
| 2026-04-24 19:02 | 41.67018 | 44.95987 | 1576 ft | 0 kts | 135° |
| 2026-04-24 19:05 | 41.66965 | 44.96070 | 1574 ft | 20 kts | 131° |
| 2026-04-24 19:05 | 41.66864 | 44.96215 | 1572 ft | 22 kts | 133° |
| 2026-04-24 19:05 | 41.66757 | 44.96366 | 1571 ft | 22 kts | 134° |
| 2026-04-24 19:05 | 41.66607 | 44.96402 | 1562 ft | 25 kts | 193° |
| 2026-04-24 19:06 | 41.66435 | 44.96346 | 1552 ft | 26 kts | 194° |
| 2026-04-24 19:06 | 41.66257 | 44.96298 | 1540 ft | 20 kts | 181° |
| 2026-04-24 19:06 | 41.66205 | 44.96307 | 1537 ft | 0 kts | 165° |
| 2026-04-24 19:07 | 41.66187 | 44.96315 | 1537 ft | 9 kts | 161° |
| 2026-04-24 19:07 | 41.66138 | 44.96348 | 1534 ft | 13 kts | 144° |
| 2026-04-24 19:07 | 41.66092 | 44.96407 | 1531 ft | 5 kts | 133° |
| 2026-04-24 19:08 | 41.66057 | 44.96448 | 1529 ft | 8 kts | 140° |
| 2026-04-24 19:08 | 41.66007 | 44.96512 | 1526 ft | 11 kts | 136° |
| 2026-04-24 19:08 | 41.65984 | 44.96540 | 1523 ft | 0 kts | 136° |
| 2026-04-24 19:08 | 41.65977 | 44.96550 | 1523 ft | 4 kts | 136° |
| 2026-04-24 19:09 | 41.65969 | 44.96561 | 1522 ft | 0 kts | 134° |
| 2026-04-24 19:11 | 41.65964 | 44.96567 | 1521 ft | 6 kts | 138° |
| 2026-04-24 19:11 | 41.65897 | 44.96595 | 1514 ft | 3 kts | 190° |
| 2026-04-24 19:11 | 41.65896 | 44.96595 | 1514 ft | 0 kts | 191° |
| 2026-04-24 19:13 | 41.65885 | 44.96589 | 1513 ft | 7 kts | 208° |
| 2026-04-24 19:13 | 41.65841 | 44.96504 | 1513 ft | 12 kts | 260° |
| 2026-04-24 19:13 | 41.65852 | 44.96460 | 1515 ft | 4 kts | 309° |
| 2026-04-24 19:14 | 41.65861 | 44.96447 | 1515 ft | 0 kts | 316° |
| 2026-04-24 19:16 | 41.65926 | 44.96364 | 1521 ft | 42 kts | 316° |
| 2026-04-24 19:17 | 41.66319 | 44.95866 | 1536 ft | 112 kts | 316° |
| 2026-04-24 19:17 | 41.67050 | 44.94934 | 1574 ft | 169 kts | 316° |
| 2026-04-24 19:17 | 41.67885 | 44.93891 | 2350 ft | 160 kts | 317° |
| 2026-04-24 19:17 | 41.68670 | 44.92928 | 2957 ft | 153 kts | 317° |
| 2026-04-24 19:18 | 41.69471 | 44.91937 | 3342 ft | 164 kts | 317° |
| 2026-04-24 19:18 | 41.70344 | 44.90853 | 3709 ft | 177 kts | 317° |
| 2026-04-24 19:18 | 41.71273 | 44.89698 | 4066 ft | 191 kts | 317° |
| 2026-04-24 19:18 | 41.72279 | 44.88448 | 4415 ft | 205 kts | 317° |
| 2026-04-24 19:19 | 41.73369 | 44.87091 | 4706 ft | 226 kts | 317° |
| 2026-04-24 19:19 | 41.74574 | 44.85593 | 5221 ft | 245 kts | 317° |
| 2026-04-24 19:19 | 41.75861 | 44.83993 | 5805 ft | 262 kts | 317° |
| 2026-04-24 19:19 | 41.77264 | 44.82379 | 6494 ft | 274 kts | 328° |
| 2026-04-24 19:20 | 41.78985 | 44.81260 | 7383 ft | 277 kts | 333° |
| 2026-04-24 19:20 | 41.80691 | 44.80061 | 8283 ft | 281 kts | 332° |
| 2026-04-24 19:20 | 41.82397 | 44.78828 | 9168 ft | 284 kts | 332° |
| 2026-04-24 19:20 | 41.84134 | 44.77561 | 10043 ft | 288 kts | 331° |
| 2026-04-24 19:21 | 41.85921 | 44.76253 | 10673 ft | 301 kts | 331° |
| 2026-04-24 19:21 | 41.87818 | 44.74862 | 11131 ft | 320 kts | 331° |
| 2026-04-24 19:21 | 41.89830 | 44.73386 | 11566 ft | 339 kts | 331° |
| 2026-04-24 19:21 | 41.91943 | 44.71835 | 12251 ft | 349 kts | 331° |
| 2026-04-24 19:22 | 41.93339 | 44.70809 | 12844 ft | 351 kts | 331° |
| 2026-04-24 19:22 | 41.96206 | 44.68702 | 13956 ft | 356 kts | 331° |
| 2026-04-24 19:22 | 41.98406 | 44.67083 | 14738 ft | 361 kts | 331° |
| 2026-04-24 19:22 | 42.00584 | 44.65479 | 15495 ft | 365 kts | 331° |
| 2026-04-24 19:23 | 42.02842 | 44.63815 | 16252 ft | 369 kts | 331° |
| 2026-04-24 19:23 | 42.05085 | 44.62161 | 16972 ft | 373 kts | 331° |
| 2026-04-24 19:23 | 42.07377 | 44.60469 | 17684 ft | 377 kts | 331° |
| 2026-04-24 19:23 | 42.09669 | 44.58776 | 18372 ft | 381 kts | 331° |
| 2026-04-24 19:24 | 42.12003 | 44.57052 | 19051 ft | 385 kts | 331° |
| 2026-04-24 19:24 | 42.14362 | 44.55307 | 19710 ft | 389 kts | 331° |
| 2026-04-24 19:24 | 42.16739 | 44.53547 | 20341 ft | 393 kts | 331° |
| 2026-04-24 19:24 | 42.19127 | 44.51776 | 20949 ft | 396 kts | 331° |
| 2026-04-24 19:25 | 42.21563 | 44.49969 | 21551 ft | 400 kts | 331° |
| 2026-04-24 19:25 | 42.24004 | 44.48156 | 22131 ft | 403 kts | 331° |
| 2026-04-24 19:25 | 42.26472 | 44.46321 | 22693 ft | 407 kts | 331° |
| 2026-04-24 19:25 | 42.28956 | 44.44474 | 23237 ft | 410 kts | 331° |
| 2026-04-24 19:26 | 42.31456 | 44.42612 | 23765 ft | 414 kts | 331° |
| 2026-04-24 19:26 | 42.33973 | 44.40736 | 24282 ft | 417 kts | 331° |
| 2026-04-24 19:26 | 42.36535 | 44.38824 | 24794 ft | 420 kts | 331° |
| 2026-04-24 19:26 | 42.39097 | 44.36911 | 25293 ft | 424 kts | 331° |
| 2026-04-24 19:27 | 42.41648 | 44.35004 | 25777 ft | 427 kts | 331° |
| 2026-04-24 19:27 | 42.44255 | 44.33053 | 26261 ft | 430 kts | 330° |
| 2026-04-24 19:27 | 42.46895 | 44.31076 | 26741 ft | 433 kts | 330° |
| 2026-04-24 19:27 | 42.49524 | 44.29105 | 27208 ft | 436 kts | 330° |
| 2026-04-24 19:28 | 42.52168 | 44.27121 | 27668 ft | 439 kts | 330° |
| 2026-04-24 19:28 | 42.54861 | 44.25098 | 28115 ft | 443 kts | 330° |
| 2026-04-24 19:28 | 42.57570 | 44.23063 | 28625 ft | 444 kts | 330° |
| 2026-04-24 19:28 | 42.60238 | 44.21055 | 29228 ft | 444 kts | 330° |
| 2026-04-24 19:29 | 42.65919 | 44.17995 | 30443 ft | 441 kts | 348° |
| 2026-04-24 19:29 | 42.68900 | 44.17110 | 31050 ft | 439 kts | 347° |
| 2026-04-24 19:29 | 42.71846 | 44.16222 | 31627 ft | 438 kts | 347° |
| 2026-04-24 19:30 | 42.74845 | 44.15313 | 32034 ft | 439 kts | 347° |
| 2026-04-24 19:30 | 42.80786 | 44.13506 | 31994 ft | 434 kts | 347° |
| 2026-04-24 19:31 | 42.86694 | 44.11705 | 31999 ft | 434 kts | 347° |
| 2026-04-24 19:31 | 42.92645 | 44.09887 | 32000 ft | 434 kts | 347° |
| 2026-04-24 19:32 | 42.98547 | 44.08081 | 31999 ft | 435 kts | 347° |
| 2026-04-24 19:32 | 43.04447 | 44.06272 | 32000 ft | 435 kts | 347° |
| 2026-04-24 19:33 | 43.10359 | 44.04456 | 32000 ft | 435 kts | 347° |
| 2026-04-24 19:33 | 43.16236 | 44.02643 | 32000 ft | 435 kts | 347° |
| 2026-04-24 19:34 | 43.22144 | 44.00808 | 32000 ft | 435 kts | 347° |
| 2026-04-24 19:34 | 43.28030 | 43.98975 | 32000 ft | 435 kts | 347° |
| 2026-04-24 19:35 | 43.33945 | 43.97130 | 32001 ft | 438 kts | 347° |
| 2026-04-24 19:35 | 43.36949 | 43.96191 | 32013 ft | 451 kts | 347° |
| 2026-04-24 19:35 | 43.40051 | 43.95221 | 32005 ft | 463 kts | 347° |
| 2026-04-24 19:36 | 43.46445 | 43.93223 | 32002 ft | 479 kts | 347° |
| 2026-04-24 19:36 | 43.52852 | 43.91218 | 31998 ft | 468 kts | 347° |
| 2026-04-24 19:37 | 43.59203 | 43.89227 | 32000 ft | 466 kts | 347° |
| 2026-04-24 19:37 | 43.65539 | 43.87235 | 32000 ft | 467 kts | 347° |
| 2026-04-24 19:38 | 43.71865 | 43.85243 | 32000 ft | 467 kts | 347° |
| 2026-04-24 19:38 | 43.78197 | 43.83244 | 32000 ft | 467 kts | 347° |
| 2026-04-24 19:39 | 43.84525 | 43.81243 | 32000 ft | 467 kts | 347° |
| 2026-04-24 19:39 | 43.90855 | 43.79247 | 32000 ft | 467 kts | 347° |
| 2026-04-24 19:40 | 43.97185 | 43.77248 | 32000 ft | 467 kts | 347° |
| 2026-04-24 19:40 | 44.03489 | 43.75252 | 32000 ft | 467 kts | 347° |
| 2026-04-24 19:41 | 44.09812 | 43.73246 | 32000 ft | 467 kts | 347° |
| 2026-04-24 19:41 | 44.16182 | 43.71221 | 32000 ft | 467 kts | 347° |
| 2026-04-24 19:42 | 44.22500 | 43.69211 | 32000 ft | 467 kts | 347° |
| 2026-04-24 19:42 | 44.28822 | 43.67196 | 32000 ft | 467 kts | 347° |
| 2026-04-24 19:43 | 44.35164 | 43.65170 | 32000 ft | 467 kts | 347° |
| 2026-04-24 19:43 | 44.41507 | 43.63139 | 32000 ft | 467 kts | 347° |
| 2026-04-24 19:44 | 44.47818 | 43.61115 | 32000 ft | 467 kts | 347° |
| 2026-04-24 19:44 | 44.54174 | 43.59078 | 32000 ft | 467 kts | 347° |
| 2026-04-24 19:45 | 44.60483 | 43.57052 | 32000 ft | 467 kts | 347° |
| 2026-04-24 19:45 | 44.66804 | 43.55018 | 32000 ft | 467 kts | 347° |
| 2026-04-24 19:46 | 44.73160 | 43.52967 | 32000 ft | 467 kts | 347° |
| 2026-04-24 19:46 | 44.79459 | 43.50936 | 32000 ft | 467 kts | 347° |
| 2026-04-24 19:47 | 44.85775 | 43.48897 | 32000 ft | 467 kts | 347° |
| 2026-04-24 19:47 | 44.92257 | 43.46800 | 32002 ft | 484 kts | 347° |
| 2026-04-24 19:48 | 44.98847 | 43.44662 | 32000 ft | 487 kts | 347° |
| 2026-04-24 19:48 | 45.08735 | 43.41778 | 31978 ft | 484 kts | 358° |
| 2026-04-24 19:49 | 45.15311 | 43.43304 | 32018 ft | 485 kts | 13° |
| 2026-04-24 19:49 | 45.21934 | 43.45212 | 32002 ft | 488 kts | 11° |
| 2026-04-24 19:50 | 45.35450 | 43.48950 | 31999 ft | 497 kts | 11° |
| 2026-04-24 19:51 | 45.45616 | 43.51767 | 31999 ft | 496 kts | 11° |
| 2026-04-24 19:52 | 45.55739 | 43.54592 | 32000 ft | 496 kts | 11° |
| 2026-04-24 19:52 | 45.62502 | 43.56486 | 32042 ft | 497 kts | 11° |
| 2026-04-24 19:53 | 45.65915 | 43.57444 | 32203 ft | 497 kts | 11° |
| 2026-04-24 19:53 | 45.69310 | 43.58398 | 32392 ft | 497 kts | 11° |
| 2026-04-24 19:53 | 45.76038 | 43.60292 | 32763 ft | 495 kts | 11° |
| 2026-04-24 19:54 | 45.79455 | 43.61256 | 32954 ft | 495 kts | 11° |
| 2026-04-24 19:54 | 45.82808 | 43.62203 | 33131 ft | 495 kts | 11° |
| 2026-04-24 19:54 | 45.86175 | 43.63155 | 33295 ft | 494 kts | 11° |
| 2026-04-24 19:54 | 45.89550 | 43.64111 | 33453 ft | 494 kts | 11° |
| 2026-04-24 19:55 | 45.91789 | 43.64745 | 33557 ft | 494 kts | 11° |
| 2026-04-24 19:55 | 45.96328 | 43.66033 | 33764 ft | 493 kts | 11° |
| 2026-04-24 19:55 | 45.99700 | 43.66991 | 33919 ft | 493 kts | 11° |
| 2026-04-24 19:55 | 46.03090 | 43.68075 | 34067 ft | 493 kts | 13° |
| 2026-04-24 19:56 | 46.06405 | 43.69190 | 34214 ft | 492 kts | 13° |
| 2026-04-24 19:56 | 46.09719 | 43.70298 | 34364 ft | 492 kts | 13° |
| 2026-04-24 19:56 | 46.13102 | 43.71429 | 34516 ft | 492 kts | 13° |
| 2026-04-24 19:56 | 46.16419 | 43.72539 | 34665 ft | 491 kts | 13° |
| 2026-04-24 19:57 | 46.19771 | 43.73661 | 34816 ft | 491 kts | 13° |
| 2026-04-24 19:57 | 46.23135 | 43.74789 | 34967 ft | 490 kts | 13° |
| 2026-04-24 19:57 | 46.26460 | 43.75905 | 35003 ft | 490 kts | 13° |
| 2026-04-24 19:58 | 46.33066 | 43.78126 | 35004 ft | 489 kts | 13° |
| 2026-04-24 19:58 | 46.39719 | 43.80369 | 35000 ft | 489 kts | 13° |
| 2026-04-24 19:59 | 46.46399 | 43.82626 | 34999 ft | 490 kts | 13° |
| 2026-04-24 19:59 | 46.53018 | 43.84871 | 34999 ft | 490 kts | 13° |
| 2026-04-24 20:00 | 46.59659 | 43.87130 | 35000 ft | 490 kts | 13° |
| 2026-04-24 20:00 | 46.66296 | 43.89393 | 35000 ft | 490 kts | 13° |
| 2026-04-24 20:01 | 46.72912 | 43.91655 | 35000 ft | 490 kts | 13° |
| 2026-04-24 20:01 | 46.79556 | 43.93932 | 35000 ft | 490 kts | 13° |
| 2026-04-24 20:02 | 46.85066 | 43.95826 | 35000 ft | 490 kts | 13° |
| 2026-04-24 20:02 | 46.92824 | 43.98497 | 35000 ft | 490 kts | 13° |
| 2026-04-24 20:03 | 46.99408 | 44.00772 | 35000 ft | 490 kts | 13° |
| 2026-04-24 20:03 | 47.06015 | 44.03079 | 35000 ft | 490 kts | 13° |
| 2026-04-24 20:04 | 47.12661 | 44.05407 | 35000 ft | 490 kts | 13° |
| 2026-04-24 20:04 | 47.19236 | 44.07715 | 35000 ft | 490 kts | 13° |
| 2026-04-24 20:05 | 47.25880 | 44.10054 | 35000 ft | 490 kts | 13° |
| 2026-04-24 20:05 | 47.32480 | 44.12383 | 35000 ft | 490 kts | 13° |
| 2026-04-24 20:06 | 47.39113 | 44.14730 | 35000 ft | 490 kts | 13° |
| 2026-04-24 20:06 | 47.45728 | 44.17076 | 35000 ft | 490 kts | 13° |
| 2026-04-24 20:07 | 47.51252 | 44.19040 | 35000 ft | 490 kts | 13° |
| 2026-04-24 20:07 | 47.58968 | 44.21791 | 35000 ft | 490 kts | 13° |
| 2026-04-24 20:08 | 47.65573 | 44.24152 | 35000 ft | 490 kts | 13° |
| 2026-04-24 20:08 | 47.72226 | 44.26537 | 35000 ft | 490 kts | 13° |
| 2026-04-24 20:09 | 47.78847 | 44.28916 | 35000 ft | 490 kts | 13° |
| 2026-04-24 20:09 | 47.85509 | 44.31317 | 35000 ft | 490 kts | 13° |
| 2026-04-24 20:10 | 47.92118 | 44.33704 | 35000 ft | 490 kts | 13° |
| 2026-04-24 20:10 | 47.98669 | 44.36718 | 35005 ft | 490 kts | 18° |
| 2026-04-24 20:11 | 48.05157 | 44.39869 | 35001 ft | 490 kts | 18° |
| 2026-04-24 20:11 | 48.11680 | 44.43021 | 34999 ft | 490 kts | 18° |
| 2026-04-24 20:12 | 48.18164 | 44.46160 | 34999 ft | 490 kts | 18° |
| 2026-04-24 20:12 | 48.24657 | 44.49313 | 35000 ft | 490 kts | 18° |
| 2026-04-24 20:13 | 48.31144 | 44.52471 | 35000 ft | 490 kts | 18° |
| 2026-04-24 20:13 | 48.37640 | 44.55642 | 35000 ft | 490 kts | 18° |
| 2026-04-24 20:14 | 48.44099 | 44.58802 | 35000 ft | 490 kts | 18° |
| 2026-04-24 20:14 | 48.50577 | 44.61982 | 35000 ft | 490 kts | 18° |
| 2026-04-24 20:15 | 48.57034 | 44.65158 | 35000 ft | 490 kts | 18° |
| 2026-04-24 20:15 | 48.63466 | 44.68331 | 35000 ft | 490 kts | 18° |
| 2026-04-24 20:16 | 48.69923 | 44.71538 | 35000 ft | 490 kts | 18° |
| 2026-04-24 20:16 | 48.76370 | 44.74750 | 35000 ft | 490 kts | 18° |
| 2026-04-24 20:17 | 48.82853 | 44.77990 | 35000 ft | 490 kts | 18° |
| 2026-04-24 20:17 | 48.92648 | 44.82172 | 34998 ft | 490 kts | 15° |
| 2026-04-24 20:18 | 48.99201 | 44.84927 | 35000 ft | 490 kts | 15° |
| 2026-04-24 20:18 | 49.05753 | 44.87691 | 35000 ft | 490 kts | 15° |
| 2026-04-24 20:19 | 49.12342 | 44.90480 | 35000 ft | 490 kts | 15° |
| 2026-04-24 20:19 | 49.18905 | 44.93265 | 35000 ft | 490 kts | 15° |
| 2026-04-24 20:20 | 49.25454 | 44.96052 | 35000 ft | 490 kts | 15° |
| 2026-04-24 20:20 | 49.32021 | 44.98854 | 35000 ft | 490 kts | 15° |
| 2026-04-24 20:21 | 49.38575 | 45.01659 | 35000 ft | 490 kts | 15° |
| 2026-04-24 20:21 | 49.45172 | 45.04489 | 35000 ft | 490 kts | 15° |
| 2026-04-24 20:22 | 49.51714 | 45.07304 | 35000 ft | 490 kts | 15° |
| 2026-04-24 20:22 | 49.58260 | 45.10129 | 35000 ft | 490 kts | 15° |
| 2026-04-24 20:23 | 49.64850 | 45.12980 | 35000 ft | 490 kts | 15° |
| 2026-04-24 20:23 | 49.71408 | 45.15836 | 34999 ft | 490 kts | 15° |
| 2026-04-24 20:24 | 49.77956 | 45.18700 | 34999 ft | 490 kts | 15° |
| 2026-04-24 20:24 | 49.84507 | 45.21574 | 34999 ft | 490 kts | 15° |
| 2026-04-24 20:25 | 49.91066 | 45.24459 | 34999 ft | 490 kts | 15° |
| 2026-04-24 20:25 | 49.97635 | 45.27358 | 34999 ft | 490 kts | 15° |
| 2026-04-24 20:26 | 50.04246 | 45.30101 | 34996 ft | 489 kts | 11° |
| 2026-04-24 20:26 | 50.10907 | 45.32292 | 34997 ft | 490 kts | 12° |
| 2026-04-24 20:27 | 50.17545 | 45.34545 | 34999 ft | 490 kts | 12° |
| 2026-04-24 20:27 | 50.24179 | 45.36808 | 35000 ft | 490 kts | 12° |
| 2026-04-24 20:28 | 50.30859 | 45.39094 | 35000 ft | 490 kts | 12° |
| 2026-04-24 20:28 | 50.37487 | 45.41369 | 35000 ft | 490 kts | 12° |
| 2026-04-24 20:29 | 50.44130 | 45.43655 | 34999 ft | 490 kts | 12° |
| 2026-04-24 20:29 | 50.50818 | 45.45963 | 34999 ft | 490 kts | 12° |
| 2026-04-24 20:30 | 50.57456 | 45.48260 | 34999 ft | 490 kts | 12° |
| 2026-04-24 20:30 | 50.64079 | 45.50560 | 34999 ft | 490 kts | 12° |
| 2026-04-24 20:31 | 50.70729 | 45.52875 | 34999 ft | 490 kts | 12° |
| 2026-04-24 20:31 | 50.77360 | 45.55190 | 34999 ft | 490 kts | 12° |
| 2026-04-24 20:32 | 50.83984 | 45.57551 | 35000 ft | 490 kts | 12° |
| 2026-04-24 20:32 | 50.90617 | 45.59930 | 34999 ft | 490 kts | 12° |
| 2026-04-24 20:33 | 50.97241 | 45.62313 | 34999 ft | 490 kts | 12° |
| 2026-04-24 20:33 | 51.03816 | 45.64869 | 34986 ft | 489 kts | 19° |
| 2026-04-24 20:34 | 51.09958 | 45.69503 | 35006 ft | 490 kts | 26° |
| 2026-04-24 20:34 | 51.16125 | 45.74155 | 35003 ft | 489 kts | 25° |
| 2026-04-24 20:35 | 51.22272 | 45.78781 | 35000 ft | 489 kts | 25° |
| 2026-04-24 20:35 | 51.28415 | 45.83414 | 34999 ft | 490 kts | 25° |
| 2026-04-24 20:36 | 51.34594 | 45.88089 | 34999 ft | 490 kts | 25° |
| 2026-04-24 20:36 | 51.40743 | 45.92754 | 35000 ft | 490 kts | 25° |
| 2026-04-24 20:37 | 51.46870 | 45.97417 | 35000 ft | 490 kts | 25° |
| 2026-04-24 20:37 | 51.53048 | 46.02133 | 35000 ft | 490 kts | 25° |
| 2026-04-24 20:38 | 51.58773 | 46.07829 | 34993 ft | 489 kts | 42° |
| 2026-04-24 20:38 | 51.63908 | 46.15162 | 34994 ft | 490 kts | 41° |
| 2026-04-24 20:39 | 51.69036 | 46.22317 | 35000 ft | 490 kts | 40° |
| 2026-04-24 20:39 | 51.74174 | 46.29494 | 35000 ft | 490 kts | 40° |
| 2026-04-24 20:40 | 51.79348 | 46.36742 | 35000 ft | 490 kts | 40° |
| 2026-04-24 20:40 | 51.83972 | 46.44779 | 35007 ft | 489 kts | 53° |
| 2026-04-24 20:41 | 51.88117 | 46.53524 | 34997 ft | 490 kts | 52° |
| 2026-04-24 20:41 | 51.92269 | 46.62195 | 34998 ft | 490 kts | 52° |
| 2026-04-24 20:42 | 51.96451 | 46.70943 | 34999 ft | 490 kts | 52° |
| 2026-04-24 20:42 | 52.00592 | 46.79632 | 35000 ft | 490 kts | 52° |
| 2026-04-24 20:43 | 52.04747 | 46.88380 | 35000 ft | 490 kts | 52° |
| 2026-04-24 20:43 | 52.08904 | 46.97165 | 35000 ft | 490 kts | 52° |
| 2026-04-24 20:44 | 52.13042 | 47.05938 | 34999 ft | 490 kts | 52° |
| 2026-04-24 20:44 | 52.17165 | 47.14710 | 34999 ft | 490 kts | 52° |
| 2026-04-24 20:45 | 52.21291 | 47.23532 | 35000 ft | 490 kts | 52° |
| 2026-04-24 20:45 | 52.25400 | 47.32347 | 34999 ft | 484 kts | 52° |
| 2026-04-24 20:46 | 52.27396 | 47.36643 | 34721 ft | 469 kts | 52° |
| 2026-04-24 20:46 | 52.29352 | 47.40857 | 33904 ft | 469 kts | 52° |
| 2026-04-24 20:46 | 52.31312 | 47.45087 | 32987 ft | 471 kts | 52° |
| 2026-04-24 20:46 | 52.33302 | 47.49388 | 32068 ft | 472 kts | 52° |
| 2026-04-24 20:47 | 52.35262 | 47.53630 | 31582 ft | 468 kts | 52° |
| 2026-04-24 20:47 | 52.37220 | 47.57875 | 31374 ft | 464 kts | 52° |
| 2026-04-24 20:47 | 52.39129 | 47.62019 | 31028 ft | 461 kts | 52° |
| 2026-04-24 20:47 | 52.41042 | 47.66181 | 30672 ft | 456 kts | 53° |
| 2026-04-24 20:48 | 52.42944 | 47.70323 | 30322 ft | 453 kts | 53° |
| 2026-04-24 20:48 | 52.44821 | 47.74420 | 29972 ft | 451 kts | 53° |
| 2026-04-24 20:48 | 52.46694 | 47.78513 | 29622 ft | 448 kts | 53° |
| 2026-04-24 20:48 | 52.48552 | 47.82580 | 29273 ft | 446 kts | 53° |
| 2026-04-24 20:49 | 52.50385 | 47.86598 | 28926 ft | 444 kts | 53° |
| 2026-04-24 20:49 | 52.52232 | 47.90652 | 28574 ft | 441 kts | 53° |
| 2026-04-24 20:49 | 52.54048 | 47.94647 | 28225 ft | 439 kts | 53° |
| 2026-04-24 20:49 | 52.55853 | 47.98622 | 27875 ft | 436 kts | 53° |
| 2026-04-24 20:50 | 52.57668 | 48.02627 | 27522 ft | 434 kts | 53° |
| 2026-04-24 20:50 | 52.59473 | 48.06617 | 27168 ft | 432 kts | 53° |
| 2026-04-24 20:50 | 52.61258 | 48.10566 | 26816 ft | 429 kts | 53° |
| 2026-04-24 20:50 | 52.63021 | 48.14474 | 26467 ft | 427 kts | 53° |
| 2026-04-24 20:51 | 52.64778 | 48.18374 | 26116 ft | 425 kts | 53° |
| 2026-04-24 20:51 | 52.66522 | 48.22252 | 25766 ft | 422 kts | 53° |
| 2026-04-24 20:51 | 52.68261 | 48.26124 | 25415 ft | 420 kts | 53° |
| 2026-04-24 20:51 | 52.69991 | 48.29980 | 25064 ft | 418 kts | 53° |
| 2026-04-24 20:52 | 52.71705 | 48.33810 | 24713 ft | 416 kts | 53° |
| 2026-04-24 20:52 | 52.73407 | 48.37615 | 24363 ft | 413 kts | 53° |
| 2026-04-24 20:52 | 52.75109 | 48.41430 | 24011 ft | 411 kts | 53° |
| 2026-04-24 20:52 | 52.76789 | 48.45197 | 23662 ft | 409 kts | 53° |
| 2026-04-24 20:53 | 52.78476 | 48.48988 | 23308 ft | 407 kts | 53° |
| 2026-04-24 20:53 | 52.80158 | 48.52772 | 22954 ft | 405 kts | 53° |
| 2026-04-24 20:53 | 52.81823 | 48.56524 | 22601 ft | 402 kts | 53° |
| 2026-04-24 20:53 | 52.83479 | 48.60263 | 22248 ft | 400 kts | 53° |
| 2026-04-24 20:54 | 52.85113 | 48.63955 | 21898 ft | 398 kts | 53° |
| 2026-04-24 20:54 | 52.86738 | 48.67633 | 21547 ft | 396 kts | 54° |
| 2026-04-24 20:54 | 52.88359 | 48.71308 | 21195 ft | 394 kts | 54° |
| 2026-04-24 20:54 | 52.89978 | 48.74981 | 20842 ft | 392 kts | 54° |
| 2026-04-24 20:55 | 52.91593 | 48.78653 | 20487 ft | 390 kts | 54° |
| 2026-04-24 20:55 | 52.93186 | 48.82279 | 20135 ft | 388 kts | 54° |
| 2026-04-24 20:55 | 52.94765 | 48.85883 | 19783 ft | 386 kts | 54° |
| 2026-04-24 20:55 | 52.96335 | 48.89471 | 19432 ft | 384 kts | 54° |
| 2026-04-24 20:56 | 52.97891 | 48.93034 | 19082 ft | 382 kts | 54° |
| 2026-04-24 20:56 | 52.99433 | 48.96569 | 18732 ft | 380 kts | 54° |
| 2026-04-24 20:56 | 53.00979 | 49.00116 | 18380 ft | 377 kts | 54° |
| 2026-04-24 20:56 | 53.02493 | 49.03596 | 18024 ft | 369 kts | 54° |
| 2026-04-24 20:57 | 53.03983 | 49.07027 | 17660 ft | 360 kts | 54° |
| 2026-04-24 20:57 | 53.05424 | 49.10348 | 17301 ft | 352 kts | 54° |
| 2026-04-24 20:57 | 53.06844 | 49.13626 | 16940 ft | 344 kts | 54° |
| 2026-04-24 20:57 | 53.08253 | 49.16818 | 16575 ft | 337 kts | 50° |
| 2026-04-24 20:58 | 53.09995 | 49.19329 | 16210 ft | 331 kts | 35° |
| 2026-04-24 20:58 | 53.11866 | 49.21574 | 15859 ft | 326 kts | 36° |
| 2026-04-24 20:58 | 53.13666 | 49.23752 | 15507 ft | 321 kts | 36° |
| 2026-04-24 20:58 | 53.15453 | 49.25921 | 15153 ft | 317 kts | 36° |
| 2026-04-24 20:59 | 53.17235 | 49.28086 | 14796 ft | 313 kts | 36° |
| 2026-04-24 20:59 | 53.18963 | 49.30187 | 14446 ft | 310 kts | 36° |
| 2026-04-24 20:59 | 53.20679 | 49.32278 | 14025 ft | 302 kts | 36° |
| 2026-04-24 20:59 | 53.22356 | 49.34323 | 13677 ft | 295 kts | 36° |
| 2026-04-24 21:00 | 53.23999 | 49.36328 | 13376 ft | 294 kts | 36° |
| 2026-04-24 21:00 | 53.25648 | 49.38343 | 13020 ft | 293 kts | 36° |
| 2026-04-24 21:00 | 53.27274 | 49.40331 | 12672 ft | 291 kts | 36° |
| 2026-04-24 21:00 | 53.28903 | 49.42327 | 12320 ft | 290 kts | 36° |
| 2026-04-24 21:01 | 53.30506 | 49.44293 | 11973 ft | 288 kts | 36° |
| 2026-04-24 21:01 | 53.32129 | 49.46284 | 11621 ft | 287 kts | 36° |
| 2026-04-24 21:01 | 53.33730 | 49.48251 | 11271 ft | 286 kts | 36° |
| 2026-04-24 21:01 | 53.35340 | 49.50228 | 10919 ft | 285 kts | 36° |
| 2026-04-24 21:02 | 53.36923 | 49.52175 | 10571 ft | 284 kts | 36° |
| 2026-04-24 21:02 | 53.38515 | 49.54136 | 10221 ft | 283 kts | 36° |
| 2026-04-24 21:02 | 53.40088 | 49.56074 | 9873 ft | 282 kts | 36° |
| 2026-04-24 21:02 | 53.41668 | 49.58024 | 9522 ft | 281 kts | 36° |
| 2026-04-24 21:03 | 53.43235 | 49.59959 | 9174 ft | 281 kts | 36° |
| 2026-04-24 21:03 | 53.44790 | 49.61880 | 8827 ft | 280 kts | 36° |
| 2026-04-24 21:03 | 53.46364 | 49.63827 | 8432 ft | 276 kts | 36° |
| 2026-04-24 21:03 | 53.47897 | 49.65725 | 8116 ft | 275 kts | 37° |
| 2026-04-24 21:04 | 53.49436 | 49.67632 | 7768 ft | 275 kts | 37° |
| 2026-04-24 21:04 | 53.50977 | 49.69543 | 7419 ft | 275 kts | 37° |
| 2026-04-24 21:04 | 53.52504 | 49.71440 | 7072 ft | 275 kts | 37° |
| 2026-04-24 21:04 | 53.54041 | 49.73349 | 6723 ft | 274 kts | 37° |
| 2026-04-24 21:05 | 53.55575 | 49.75257 | 6374 ft | 274 kts | 37° |
| 2026-04-24 21:05 | 53.57106 | 49.77163 | 6025 ft | 274 kts | 37° |
| 2026-04-24 21:05 | 53.58626 | 49.79057 | 5677 ft | 273 kts | 37° |
| 2026-04-24 21:05 | 53.60154 | 49.80963 | 5327 ft | 273 kts | 37° |
| 2026-04-24 21:06 | 53.61668 | 49.82853 | 4980 ft | 272 kts | 37° |
| 2026-04-24 21:06 | 53.63165 | 49.84723 | 4541 ft | 258 kts | 37° |
| 2026-04-24 21:06 | 53.64554 | 49.86460 | 4243 ft | 247 kts | 37° |
| 2026-04-24 21:06 | 53.65920 | 49.88195 | 3873 ft | 240 kts | 41° |
| 2026-04-24 21:07 | 53.66839 | 49.90439 | 3498 ft | 234 kts | 72° |
| 2026-04-24 21:07 | 53.66938 | 49.93129 | 3144 ft | 229 kts | 103° |
| 2026-04-24 21:07 | 53.66395 | 49.95613 | 2802 ft | 223 kts | 112° |
| 2026-04-24 21:07 | 53.65841 | 49.97936 | 2616 ft | 204 kts | 112° |
| 2026-04-24 21:08 | 53.65337 | 50.00008 | 2675 ft | 183 kts | 112° |
| 2026-04-24 21:08 | 53.64860 | 50.01957 | 2739 ft | 174 kts | 112° |
| 2026-04-24 21:08 | 53.64397 | 50.03841 | 2670 ft | 175 kts | 112° |
| 2026-04-24 21:08 | 53.63956 | 50.05633 | 2621 ft | 153 kts | 112° |
| 2026-04-24 21:09 | 53.63563 | 50.07232 | 2622 ft | 144 kts | 112° |
| 2026-04-24 21:09 | 53.63180 | 50.08783 | 2679 ft | 143 kts | 112° |
| 2026-04-24 21:09 | 53.62752 | 50.10306 | 2592 ft | 147 kts | 123° |
| 2026-04-24 21:09 | 53.61930 | 50.11234 | 2381 ft | 144 kts | 168° |
| 2026-04-24 21:10 | 53.60945 | 50.11527 | 2227 ft | 143 kts | 170° |
| 2026-04-24 21:10 | 53.59988 | 50.11976 | 2042 ft | 142 kts | 159° |
| 2026-04-24 21:10 | 53.59061 | 50.12548 | 1869 ft | 142 kts | 161° |
| 2026-04-24 21:10 | 53.58133 | 50.13099 | 1695 ft | 141 kts | 160° |
| 2026-04-24 21:11 | 53.57212 | 50.13652 | 1522 ft | 141 kts | 160° |
| 2026-04-24 21:11 | 53.56285 | 50.14208 | 1349 ft | 141 kts | 160° |
| 2026-04-24 21:11 | 53.55358 | 50.14724 | 1148 ft | 141 kts | 162° |
| 2026-04-24 21:11 | 53.54430 | 50.15240 | 1008 ft | 139 kts | 159° |
| 2026-04-24 21:12 | 53.53521 | 50.15829 | 860 ft | 142 kts | 159° |
| 2026-04-24 21:12 | 53.52607 | 50.16391 | 680 ft | 140 kts | 160° |
| 2026-04-24 21:12 | 53.51716 | 50.16930 | 510 ft | 130 kts | 161° |
| 2026-04-24 21:12 | 53.50966 | 50.17378 | 491 ft | 91 kts | 161° |
| 2026-04-24 21:13 | 53.50572 | 50.17613 | 491 ft | 28 kts | 160° |
| 2026-04-24 21:13 | 53.50498 | 50.17571 | 490 ft | 8 kts | 251° |
| 2026-04-24 21:13 | 53.50482 | 50.17489 | 490 ft | 6 kts | 251° |
| 2026-04-24 21:13 | 53.50467 | 50.17419 | 490 ft | 6 kts | 251° |
| 2026-04-24 21:14 | 53.50454 | 50.17347 | 490 ft | 6 kts | 256° |
| 2026-04-24 21:14 | 53.50461 | 50.17277 | 490 ft | 6 kts | 311° |
| 2026-04-24 21:14 | 53.50536 | 50.17217 | 490 ft | 14 kts | 340° |
| 2026-04-24 21:14 | 53.50635 | 50.17155 | 490 ft | 15 kts | 340° |
| 2026-04-24 21:15 | 53.50734 | 50.17097 | 490 ft | 15 kts | 340° |
| 2026-04-24 21:15 | 53.50830 | 50.17027 | 490 ft | 14 kts | 324° |
| 2026-04-24 21:15 | 53.50893 | 50.16894 | 490 ft | 14 kts | 303° |
| 2026-04-24 21:15 | 53.50947 | 50.16751 | 490 ft | 14 kts | 302° |
| 2026-04-24 21:16 | 53.50985 | 50.16656 | 490 ft | 5 kts | 301° |
| 2026-04-24 21:16 | 53.51008 | 50.16590 | 490 ft | 10 kts | 300° |
| 2026-04-24 21:16 | 53.51058 | 50.16447 | 490 ft | 11 kts | 301° |
| 2026-04-24 21:16 | 53.51110 | 50.16303 | 490 ft | 17 kts | 301° |
| 2026-04-24 21:17 | 53.51150 | 50.16179 | 490 ft | 3 kts | 286° |
| 2026-04-24 21:17 | 53.51169 | 50.16147 | 490 ft | 3 kts | 334° |
| 2026-04-24 21:17 | 53.51197 | 50.16132 | 490 ft | 4 kts | 336° |
| 2026-04-24 21:17 | 53.51219 | 50.16114 | 490 ft | 0 kts | 332° |